Time;durP1;ratioP1;P1;durP2;ratioP2;P2;SDS_P1;SDS_P2;PMS_P1;PMS_P2;Temp;Humidity;BMP_temperature;BMP_pressure;BME280_temperature;BME280_humidity;BME280_pressure;Samples;Min_cycle;Max_cycle;Signal;HPM_P1;HPM_P2
2022/07/13 00:02:29;;;;;;;5.87;2.30;;;;;;;14.11;65.67;100547.47;1809185;78;21201;-56
2022/07/13 00:05:35;;;;;;;3.50;2.25;;;;;;;14.10;65.83;100545.73;1810650;78;21339;-56
2022/07/13 00:08:42;;;;;;;3.15;2.30;;;;;;;14.09;65.92;100544.04;1809133;78;21303;-55
2022/07/13 00:11:48;;;;;;;4.50;2.35;;;;;;;14.08;65.99;100539.59;1808407;78;21192;-56
2022/07/13 00:14:54;;;;;;;3.35;2.20;;;;;;;14.06;66.03;100537.55;1808955;79;21169;-56
2022/07/13 00:18:00;;;;;;;3.62;2.47;;;;;;;14.04;66.10;100533.62;1812312;79;21307;-56
2022/07/13 00:21:08;;;;;;;8.35;2.35;;;;;;;14.02;66.08;100538.97;1808865;78;21209;-54
2022/07/13 00:24:14;;;;;;;3.45;2.12;;;;;;;13.97;66.07;100535.43;1806176;78;21189;-56
2022/07/13 00:27:21;;;;;;;4.22;2.45;;;;;;;13.94;66.01;100532.23;1799909;79;21203;-56
2022/07/13 00:30:27;;;;;;;2.45;2.12;;;;;;;13.88;65.98;100533.84;1799417;79;21165;-56
2022/07/13 00:33:35;;;;;;;4.47;2.35;;;;;;;13.87;66.10;100520.28;1799394;79;21276;-56
2022/07/13 00:36:41;;;;;;;4.30;2.62;;;;;;;13.86;66.15;100522.72;1799627;79;21197;-56
2022/07/13 00:39:48;;;;;;;4.87;2.60;;;;;;;13.82;66.21;100520.87;1799369;79;21280;-55
2022/07/13 00:42:57;;;;;;;3.72;2.17;;;;;;;13.81;66.25;100520.52;1799369;79;21203;-55
2022/07/13 00:46:03;;;;;;;3.25;2.33;;;;;;;13.81;66.29;100521.06;1796315;79;21200;-56
2022/07/13 00:49:11;;;;;;;3.58;2.22;;;;;;;13.79;66.39;100521.77;1799531;80;21185;-56
2022/07/13 00:52:19;;;;;;;3.15;2.40;;;;;;;13.77;66.41;100512.33;1799436;79;21240;-56
2022/07/13 00:55:18;;;;;;;3.37;2.30;;;;;;;13.78;66.56;100513.20;1804260;79;21225;-56
2022/07/13 00:58:24;;;;;;;7.55;2.70;;;;;;;13.78;66.66;100520.08;1799568;79;21173;-56
2022/07/13 01:01:31;;;;;;;2.55;2.22;;;;;;;13.78;66.77;100515.95;1799781;79;21200;-56
2022/07/13 01:04:37;;;;;;;3.10;2.35;;;;;;;13.77;66.80;100512.84;1799422;79;21254;-56
2022/07/13 01:07:45;;;;;;;2.75;2.25;;;;;;;13.75;66.80;100512.21;1799387;79;21208;-56
2022/07/13 01:10:51;;;;;;;3.55;2.22;;;;;;;13.71;66.74;100509.50;1794220;79;21229;-56
2022/07/13 01:13:57;;;;;;;5.83;2.60;;;;;;;13.67;66.73;100505.45;1795704;79;21185;-56
2022/07/13 01:17:02;;;;;;;5.67;2.30;;;;;;;13.65;66.80;100503.40;1799531;79;21193;-55
2022/07/13 01:20:08;;;;;;;5.62;2.65;;;;;;;13.61;66.83;100496.56;1799679;79;21707;-56
2022/07/13 01:23:20;;;;;;;3.85;2.55;;;;;;;13.59;66.88;100498.13;1799881;79;21208;-56
2022/07/13 01:26:26;;;;;;;5.55;2.33;;;;;;;13.57;66.91;100498.00;1769039;79;21162;-57
2022/07/13 01:29:32;;;;;;;2.37;2.10;;;;;;;13.55;67.00;100494.07;1762316;80;21318;-56
2022/07/13 01:32:54;;;;;;;3.90;2.35;;;;;;;13.53;67.05;100498.39;1771127;80;21217;-57
2022/07/13 01:36:00;;;;;;;6.53;2.60;;;;;;;13.52;67.10;100487.03;1775203;80;21240;-56
2022/07/13 01:39:07;;;;;;;4.53;2.70;;;;;;;13.51;67.22;100489.47;1775185;81;21193;-57
2022/07/13 01:42:12;;;;;;;4.60;2.55;;;;;;;13.52;67.31;100486.21;1775187;81;21224;-57
2022/07/13 01:45:20;;;;;;;10.43;2.55;;;;;;;13.51;67.31;100477.61;1775158;80;21177;-55
2022/07/13 01:48:28;;;;;;;7.28;2.77;;;;;;;13.49;67.27;100478.34;1775012;80;21192;-55
2022/07/13 01:51:33;;;;;;;2.90;2.58;;;;;;;13.47;67.36;100479.91;1775245;81;21252;-56
2022/07/13 01:54:39;;;;;;;4.67;2.40;;;;;;;13.47;67.42;100479.05;1775135;80;21359;-56
2022/07/13 01:57:46;;;;;;;3.15;2.52;;;;;;;13.48;67.46;100473.88;1774870;80;21224;-56
2022/07/13 02:00:53;;;;;;;5.25;2.47;;;;;;;13.46;67.50;100472.69;1756113;81;21335;-57
2022/07/13 02:04:00;;;;;;;4.60;3.15;;;;;;;13.47;67.56;100471.66;1775127;81;21225;-57
2022/07/13 02:07:06;;;;;;;5.55;2.42;;;;;;;13.46;67.57;100465.81;1775383;80;21268;-57
2022/07/13 02:10:15;;;;;;;4.65;2.50;;;;;;;13.46;67.59;100467.19;1774965;80;21185;-56
2022/07/13 02:13:21;;;;;;;7.30;3.10;;;;;;;13.45;67.64;100466.87;1756041;81;21189;-56
2022/07/13 02:16:27;;;;;;;5.72;2.83;;;;;;;13.44;67.64;100467.92;1775205;81;21355;-56
2022/07/13 02:19:33;;;;;;;5.67;2.87;;;;;;;13.44;67.70;100467.92;1775278;80;21236;-55
2022/07/13 02:22:52;;;;;;;6.15;2.90;;;;;;;13.43;67.72;100466.20;1775214;81;21254;-55
2022/07/13 02:25:59;;;;;;;5.72;2.67;;;;;;;13.44;67.74;100472.05;1775003;79;21331;-55
2022/07/13 02:29:05;;;;;;;6.42;3.40;;;;;;;13.46;67.82;100468.56;1804939;79;21559;-55
2022/07/13 02:32:10;;;;;;;7.53;3.22;;;;;;;13.49;67.94;100465.42;1799735;80;21247;-55
2022/07/13 02:35:17;;;;;;;5.42;2.77;;;;;;;13.53;68.06;100461.77;1799770;80;21181;-55
2022/07/13 02:38:24;;;;;;;6.47;2.60;;;;;;;13.58;68.13;100468.06;1799668;80;21232;-56
2022/07/13 02:41:30;;;;;;;5.60;2.42;;;;;;;13.64;68.21;100471.45;1799727;79;21208;-56
2022/07/13 02:44:36;;;;;;;8.43;2.98;;;;;;;13.69;68.30;100464.30;1799752;80;21187;-56
2022/07/13 02:47:42;;;;;;;7.22;3.25;;;;;;;13.76;68.35;100465.75;1799809;80;21335;-57
2022/07/13 02:50:48;;;;;;;4.72;2.58;;;;;;;13.82;68.44;100453.96;1799691;80;21169;-57
2022/07/13 02:53:55;;;;;;;8.13;2.92;;;;;;;13.90;68.48;100455.22;1775851;79;21173;-57
2022/07/13 02:57:05;;;;;;;6.40;2.90;;;;;;;13.98;68.59;100457.84;1799581;80;21228;-57
2022/07/13 03:00:13;;;;;;;8.80;3.25;;;;;;;14.07;68.64;100466.30;1799710;80;21173;-56
2022/07/13 03:03:20;;;;;;;7.22;2.90;;;;;;;14.15;68.72;100464.79;1813854;79;21208;-56
2022/07/13 03:06:25;;;;;;;6.78;2.95;;;;;;;14.25;68.78;100462.09;1813883;78;21196;-56
2022/07/13 03:09:31;;;;;;;4.55;2.70;;;;;;;14.35;68.88;100456.24;1813936;79;21220;-57
2022/07/13 03:12:40;;;;;;;7.15;2.55;;;;;;;14.47;68.96;100456.02;1813839;77;21220;-56
2022/07/13 03:15:46;;;;;;;3.65;2.10;;;;;;;14.59;69.01;100448.39;1813819;77;21181;-56
2022/07/13 03:18:52;;;;;;;2.85;1.92;;;;;;;14.72;69.04;100443.50;1813813;79;21184;-56
2022/07/13 03:21:59;;;;;;;3.50;1.95;;;;;;;14.84;69.04;100446.87;1813902;77;21389;-56
2022/07/13 03:25:05;;;;;;;4.72;2.02;;;;;;;14.97;68.98;100447.48;1813520;79;21251;-56
2022/07/13 03:28:17;;;;;;;5.25;2.15;;;;;;;15.10;68.95;100450.84;1806057;79;21363;-57
2022/07/13 03:31:26;;;;;;;2.65;1.87;;;;;;;15.21;68.97;100446.99;1804476;79;21205;-56
2022/07/13 03:34:34;;;;;;;2.47;1.90;;;;;;;15.34;68.95;100444.31;1804769;79;21240;-57
2022/07/13 03:37:42;;;;;;;3.72;2.30;;;;;;;15.45;68.92;100448.41;1804370;79;21240;-56
2022/07/13 03:40:49;;;;;;;4.42;2.92;;;;;;;15.56;68.88;100448.67;1804535;79;21319;-55
2022/07/13 03:43:59;;;;;;;4.95;1.95;;;;;;;15.66;68.84;100447.77;1804825;79;21201;-57
2022/07/13 03:47:07;;;;;;;6.87;2.37;;;;;;;15.77;68.86;100447.17;1799581;80;21190;-56
2022/07/13 03:50:15;;;;;;;2.52;1.87;;;;;;;15.87;68.85;100436.56;1799957;79;21197;-55
2022/07/13 03:53:24;;;;;;;6.12;1.80;;;;;;;15.99;68.84;100450.09;1800027;79;21655;-56
2022/07/13 03:56:30;;;;;;;3.37;1.60;;;;;;;16.10;68.82;100444.47;1799398;80;21213;-57
2022/07/13 03:59:36;;;;;;;4.37;2.17;;;;;;;16.21;68.81;100443.33;1799631;79;21185;-56
2022/07/13 04:02:44;;;;;;;5.10;2.00;;;;;;;16.30;68.83;100436.53;1799622;79;21335;-56
2022/07/13 04:05:52;;;;;;;4.80;1.98;;;;;;;16.41;68.82;100431.75;1799447;79;21788;-57
2022/07/13 04:09:00;;;;;;;4.12;2.05;;;;;;;16.52;68.80;100427.55;1799447;80;21196;-57
2022/07/13 04:12:08;;;;;;;3.45;1.70;;;;;;;16.62;68.77;100432.09;1799473;79;21779;-56
2022/07/13 04:15:16;;;;;;;4.28;2.75;;;;;;;16.74;68.77;100437.84;1799612;79;21166;-56
2022/07/13 04:18:23;;;;;;;3.15;1.82;;;;;;;16.83;68.75;100431.02;1796528;79;21224;-55
2022/07/13 04:21:30;;;;;;;2.52;1.77;;;;;;;16.94;68.75;100433.13;1799135;79;21339;-57
2022/07/13 04:24:36;;;;;;;3.22;1.75;;;;;;;17.05;68.74;100435.22;1789554;79;21185;-55
2022/07/13 04:27:54;;;;;;;3.75;2.02;;;;;;;17.14;68.72;100423.70;1799725;79;21182;-55
2022/07/13 04:31:02;;;;;;;9.58;2.65;;;;;;;17.24;68.68;100428.78;1767814;79;21263;-55
2022/07/13 04:34:12;;;;;;;5.37;2.30;;;;;;;17.35;68.69;100426.73;1775196;80;21220;-58
2022/07/13 04:37:19;;;;;;;3.67;1.90;;;;;;;17.44;68.67;100423.53;1740542;81;21201;-55
2022/07/13 04:40:24;;;;;;;3.35;2.10;;;;;;;17.57;68.68;100415.70;1760518;81;21686;-55
2022/07/13 04:43:34;;;;;;;7.92;2.15;;;;;;;17.68;68.69;100428.84;1774761;80;21189;-56
2022/07/13 04:46:47;;;;;;;2.40;2.02;;;;;;;17.77;68.68;100419.23;1736311;81;21256;-56
2022/07/13 04:49:54;;;;;;;5.85;2.00;;;;;;;17.87;68.65;100416.81;1752089;81;21178;-55
2022/07/13 04:53:01;;;;;;;3.72;1.98;;;;;;;17.98;68.62;100412.51;1712557;83;21229;-58
2022/07/13 04:56:07;;;;;;;3.62;2.27;;;;;;;18.08;68.57;100408.16;1742910;81;21362;-55
2022/07/13 04:59:15;;;;;;;4.95;2.70;;;;;;;18.19;68.54;100410.77;1766620;80;21342;-57
2022/07/13 05:02:23;;;;;;;4.08;2.05;;;;;;;18.28;68.52;100417.73;1765379;79;21224;-58
2022/07/13 05:05:32;;;;;;;3.77;2.30;;;;;;;18.37;68.48;100418.61;1760888;80;21257;-56
2022/07/13 05:08:42;;;;;;;5.22;1.45;;;;;;;18.47;68.41;100417.58;1772233;81;21272;-56
2022/07/13 05:11:55;;;;;;;1.75;1.55;;;;;;;18.57;68.40;100413.77;1773295;79;21219;-57
2022/07/13 05:15:03;;;;;;;5.83;2.20;;;;;;;18.67;68.30;100412.73;1774012;80;21304;-55
2022/07/13 05:18:10;;;;;;;5.75;3.10;;;;;;;18.78;68.26;100408.35;1771889;80;21860;-57
2022/07/13 05:21:18;;;;;;;4.95;2.22;;;;;;;18.87;68.14;100402.81;1774674;79;21217;-58
2022/07/13 05:24:27;;;;;;;4.60;1.90;;;;;;;18.94;68.08;100398.91;1766469;80;21200;-57
2022/07/13 05:27:33;;;;;;;2.47;1.42;;;;;;;19.04;68.04;100403.94;1773085;79;21252;-56
2022/07/13 05:30:39;;;;;;;2.62;1.80;;;;;;;19.13;67.95;100396.46;1751908;78;21208;-56
2022/07/13 05:33:46;;;;;;;8.98;3.30;;;;;;;19.22;67.90;100392.28;1791866;79;21202;-58
2022/07/13 05:37:03;;;;;;;2.00;1.60;;;;;;;19.30;67.83;100392.02;1761144;81;21279;-57
2022/07/13 05:40:08;;;;;;;2.83;1.60;;;;;;;19.40;67.76;100392.00;1773171;79;21225;-56
2022/07/13 05:43:17;;;;;;;3.08;1.52;;;;;;;19.50;67.66;100394.55;1775228;79;21357;-57
2022/07/13 05:46:24;;;;;;;3.85;1.65;;;;;;;19.58;67.59;100390.59;1796493;79;21204;-59
2022/07/13 05:49:32;;;;;;;2.92;1.30;;;;;;;19.67;67.53;100386.41;1794667;79;21192;-56
2022/07/13 05:52:42;;;;;;;3.47;1.70;;;;;;;19.75;67.47;100389.72;1775674;80;21216;-56
2022/07/13 05:55:49;;;;;;;6.45;2.80;;;;;;;19.82;67.41;100382.68;1781673;80;21261;-55
2022/07/13 05:58:59;;;;;;;5.00;1.95;;;;;;;19.92;67.33;100391.27;1788011;80;21185;-55
2022/07/13 06:02:03;;;;;;;2.45;1.40;;;;;;;19.98;67.27;100383.41;1767156;81;21260;-55
2022/07/13 06:05:08;;;;;;;2.62;1.45;;;;;;;20.07;67.24;100384.75;1765364;81;21174;-56
2022/07/13 06:08:17;;;;;;;2.87;1.57;;;;;;;20.15;67.09;100381.67;1768195;80;21197;-54
2022/07/13 06:11:26;;;;;;;2.33;1.50;;;;;;;20.23;67.06;100384.11;1742633;82;21260;-54
2022/07/13 06:14:32;;;;;;;4.22;1.60;;;;;;;20.30;66.92;100387.08;1809410;79;21859;-54
2022/07/13 06:17:42;;;;;;;5.28;1.60;;;;;;;20.35;66.84;100371.06;1793038;79;21725;-54
2022/07/13 06:20:55;;;;;;;4.67;1.40;;;;;;;20.43;66.79;100372.11;1807724;78;21323;-55
2022/07/13 06:24:05;;;;;;;1.85;1.45;;;;;;;20.51;66.72;100368.44;1808281;79;21188;-55
2022/07/13 06:27:16;;;;;;;5.03;1.37;;;;;;;20.59;66.65;100369.47;1808020;78;21199;-52
2022/07/13 06:30:24;;;;;;;3.70;1.50;;;;;;;20.69;66.63;100370.27;1803346;79;21863;-54
2022/07/13 06:33:33;;;;;;;2.15;1.67;;;;;;;20.77;66.61;100365.73;1805889;78;21260;-53
2022/07/13 06:36:44;;;;;;;3.72;1.67;;;;;;;20.85;66.56;100363.11;1789806;79;21196;-54
2022/07/13 06:39:54;;;;;;;3.17;1.60;;;;;;;20.92;66.43;100359.11;1774543;79;21180;-54
2022/07/13 06:43:12;;;;;;;;;;;;;;;20.98;66.37;100359.55;1805496;79;21196;-53
2022/07/13 06:46:17;;;;;;;4.28;1.98;;;;;;;21.07;66.33;100365.60;1808556;78;20216;-53
2022/07/13 06:49:28;;;;;;;6.72;2.60;;;;;;;21.12;66.25;100366.55;1785790;78;21186;-55
2022/07/13 06:52:40;;;;;;;4.25;1.62;;;;;;;21.18;66.07;100360.02;1780484;79;21257;-54
2022/07/13 06:55:45;;;;;;;4.62;1.77;;;;;;;21.24;65.96;100362.36;1795705;77;21177;-55
2022/07/13 06:58:56;;;;;;;6.30;1.32;;;;;;;21.31;65.87;100357.52;1780049;80;21236;-54
2022/07/13 07:02:10;;;;;;;4.40;1.50;;;;;;;21.37;65.79;100346.23;1797256;77;21906;-53
2022/07/13 07:05:18;;;;;;;6.62;2.50;;;;;;;21.45;65.71;100343.06;1781758;80;21186;-56
2022/07/13 07:08:26;;;;;;;4.22;1.67;;;;;;;21.52;65.64;100345.14;1759904;80;21531;-55
2022/07/13 07:11:33;;;;;;;3.00;1.80;;;;;;;21.60;65.53;100339.17;1782789;79;21802;-55
2022/07/13 07:14:43;;;;;;;2.55;1.70;;;;;;;21.69;65.50;100344.63;1784399;79;21216;-56
2022/07/13 07:17:54;;;;;;;6.15;1.82;;;;;;;21.79;65.44;100339.84;1754940;80;21874;-59
2022/07/13 07:21:03;;;;;;;3.85;1.90;;;;;;;21.87;65.32;100340.30;1787873;79;21205;-56
2022/07/13 07:24:11;;;;;;;2.33;1.25;;;;;;;21.93;65.16;100332.86;1772831;79;21217;-58
2022/07/13 07:27:18;;;;;;;5.33;1.60;;;;;;;22.01;65.07;100340.27;1800966;79;21189;-57
2022/07/13 07:30:28;;;;;;;2.72;0.98;;;;;;;22.08;64.87;100343.76;1807803;79;21239;-53
2022/07/13 07:33:37;;;;;;;2.27;1.10;;;;;;;22.11;64.68;100338.22;1762171;79;21750;-55
2022/07/13 07:36:47;;;;;;;2.30;1.10;;;;;;;22.15;64.57;100341.63;1744237;81;21268;-56
2022/07/13 07:40:00;;;;;;;5.17;2.35;;;;;;;22.18;64.46;100342.52;1772847;81;21275;-56
2022/07/13 07:43:11;;;;;;;2.85;1.20;;;;;;;22.23;64.37;100340.94;1769423;80;21718;-56
2022/07/13 07:46:21;;;;;;;2.05;1.07;;;;;;;22.29;64.20;100331.02;1744109;82;21220;-56
2022/07/13 07:49:27;;;;;;;2.25;0.95;;;;;;;22.36;64.13;100334.46;1763927;80;21212;-57
2022/07/13 07:52:35;;;;;;;2.25;1.00;;;;;;;22.46;64.04;100335.18;1743115;80;21229;-57
2022/07/13 07:55:52;;;;;;;4.78;1.15;;;;;;;22.55;63.96;100328.13;1767378;80;21722;-57
2022/07/13 07:59:00;;;;;;;3.15;1.30;;;;;;;22.66;63.80;100325.78;1767122;81;21197;-56
2022/07/13 08:02:07;;;;;;;3.08;1.20;;;;;;;22.76;63.67;100322.59;1736180;81;21181;-53
2022/07/13 08:05:18;;;;;;;1.92;0.80;;;;;;;22.86;63.55;100324.69;1732038;81;21213;-56
2022/07/13 08:08:27;;;;;;;1.55;1.10;;;;;;;22.93;63.32;100323.39;1761345;80;21733;-57
2022/07/13 08:11:39;;;;;;;5.42;1.30;;;;;;;22.99;63.18;100322.34;1738056;82;21246;-58
2022/07/13 08:14:49;;;;;;;3.15;1.20;;;;;;;23.08;63.10;100319.42;1716352;82;21216;-58
2022/07/13 08:18:10;;;;;;;7.70;1.20;;;;;;;23.17;62.95;100312.81;1749792;81;21205;-59
2022/07/13 08:21:20;;;;;;;2.50;1.30;;;;;;;23.31;62.92;100315.54;1693011;84;21299;-57
2022/07/13 08:24:34;;;;;;;8.20;1.37;;;;;;;23.45;62.72;100309.88;1731707;81;21198;-56
2022/07/13 08:27:44;;;;;;;3.45;1.15;;;;;;;23.55;62.50;100309.42;1754508;81;21221;-57
2022/07/13 08:30:53;;;;;;;2.62;1.20;;;;;;;23.57;62.18;100307.22;1773920;80;21694;-55
2022/07/13 08:40:58;;;;;;;6.83;1.27;;;;;;;23.78;61.60;100298.50;1776695;80;21824;-56
2022/07/13 08:44:08;;;;;;;5.67;1.15;;;;;;;23.73;61.30;100294.25;1768513;80;21192;-56
2022/07/13 08:47:17;;;;;;;2.05;1.20;;;;;;;23.73;61.12;100297.05;1781348;80;21240;-60
2022/07/13 08:50:26;;;;;;;6.12;1.05;;;;;;;23.71;60.82;100291.41;1757240;81;21193;-60
2022/07/13 08:53:34;;;;;;;2.85;1.87;;;;;;;23.68;60.58;100295.59;1755610;80;21964;-59
2022/07/13 08:56:43;;;;;;;4.75;2.17;;;;;;;23.71;60.49;100282.48;1789635;79;21741;-60
2022/07/13 08:59:51;;;;;;;3.08;1.55;;;;;;;23.82;60.39;100277.85;1803090;79;21173;-59
2022/07/13 09:03:00;;;;;;;2.85;1.12;;;;;;;23.96;60.29;100285.52;1796468;79;21176;-59
2022/07/13 09:06:10;;;;;;;;;;;;;;;24.15;60.14;100279.84;1778684;79;21208;-58
2022/07/13 09:09:36;;;;;;;2.50;1.07;;;;;;;24.30;59.81;100271.59;1764954;80;20211;-59
2022/07/13 09:12:46;;;;;;;4.53;1.10;;;;;;;24.49;59.60;100268.66;1762649;81;21234;-56
2022/07/13 09:15:55;;;;;;;4.92;1.25;;;;;;;24.78;59.51;100271.95;1764093;81;21691;-56
2022/07/13 09:19:05;;;;;;;3.00;0.90;;;;;;;24.98;59.11;100258.91;1763551;81;21258;-56
2022/07/13 09:22:18;;;;;;;2.35;0.93;;;;;;;25.10;58.67;100261.48;1762953;81;21898;-56
2022/07/13 09:25:44;;;;;;;3.15;1.07;;;;;;;25.03;58.18;100258.94;1763136;81;21307;-56
2022/07/13 09:28:55;;;;;;;3.58;1.20;;;;;;;24.99;57.94;100259.18;1767137;80;21550;-56
2022/07/13 09:32:11;;;;;;;2.85;1.15;;;;;;;24.98;57.71;100261.70;1766953;81;21208;-57
2022/07/13 09:35:16;;;;;;;2.60;1.00;;;;;;;25.08;57.62;100246.05;1742073;80;21224;-57
2022/07/13 09:38:41;;;;;;;2.58;1.10;;;;;;;25.24;57.46;100247.80;1744436;82;21267;-55
2022/07/13 09:41:52;;;;;;;2.33;1.00;;;;;;;25.33;57.12;100239.12;1746939;81;21240;-57
2022/07/13 09:48:33;;;;;;;2.58;1.25;;;;;;;25.33;56.53;100239.98;1773035;81;21185;-57
2022/07/13 09:51:44;;;;;;;4.58;0.90;;;;;;;25.31;56.29;100242.21;1783032;79;21335;-56
2022/07/13 09:54:52;;;;;;;4.17;0.90;;;;;;;25.30;56.06;100238.28;1783360;79;21178;-55
2022/07/13 09:58:01;;;;;;;2.47;0.90;;;;;;;25.33;55.97;100240.53;1813670;79;21220;-57
2022/07/13 10:01:11;;;;;;;2.65;0.95;;;;;;;25.37;55.79;100234.13;1814036;77;21323;-57
2022/07/13 10:04:21;;;;;;;3.72;1.15;;;;;;;25.48;55.66;100230.81;1806224;79;21181;-56
2022/07/13 10:07:30;;;;;;;3.27;1.82;;;;;;;25.48;55.24;100222.40;1752794;81;21218;-58
2022/07/13 10:10:41;;;;;;;3.45;1.05;;;;;;;25.47;54.98;100219.30;1804859;79;21201;-58
2022/07/13 10:13:49;;;;;;;2.20;1.20;;;;;;;25.49;54.84;100211.45;1765297;81;21206;-56
2022/07/13 10:17:07;;;;;;;4.58;1.10;;;;;;;25.50;54.65;100216.78;1801669;78;21690;-58
2022/07/13 10:20:28;;;;;;;2.70;1.17;;;;;;;25.56;54.52;100216.25;1789190;78;21319;-58
2022/07/13 10:23:45;;;;;;;4.72;1.40;;;;;;;25.63;54.35;100202.78;1811071;79;21686;-59
2022/07/13 10:26:54;;;;;;;2.83;1.10;;;;;;;25.75;54.13;100183.16;1810104;79;21413;-58
2022/07/13 10:30:11;;;;;;;5.60;1.20;;;;;;;25.90;54.05;100193.55;1794194;79;21268;-58
2022/07/13 10:33:28;;;;;;;4.08;2.27;;;;;;;26.12;53.92;100194.13;1767082;81;21237;-58
2022/07/13 10:37:00;;;;;;;4.87;1.40;;;;;;;26.28;53.71;100185.42;1771079;78;21265;-59
2022/07/13 10:40:21;;;;;;;1.95;0.80;;;;;;;26.35;53.38;100192.97;1734606;81;21220;-58
2022/07/13 10:43:26;;;;;;;5.53;1.30;;;;;;;26.36;52.98;100191.02;1744131;81;21196;-56
2022/07/13 10:46:59;;;;;;;4.20;1.40;;;;;;;26.23;52.63;100185.42;1740265;81;21437;-59
2022/07/13 10:50:05;;;;;;;;;;;;;;;26.15;52.50;100182.34;1764856;81;21195;-55
2022/07/13 10:53:13;;;;;;;1.87;1.07;;;;;;;26.14;52.34;100178.71;1752864;81;20227;-56
2022/07/13 10:56:28;;;;;;;4.42;1.20;;;;;;;26.20;52.30;100174.77;1768604;80;21217;-56
2022/07/13 10:59:56;;;;;;;1.52;0.95;;;;;;;26.32;52.11;100169.68;1709194;84;21185;-56
2022/07/13 11:03:09;;;;;;;4.00;1.30;;;;;;;26.36;51.92;100172.77;1764919;80;21240;-55
2022/07/13 11:06:28;;;;;;;2.90;0.95;;;;;;;26.40;51.66;100172.50;1707982;83;21293;-56
2022/07/13 11:09:39;;;;;;;3.95;1.07;;;;;;;26.43;51.38;100166.31;1752912;81;21213;-58
2022/07/13 11:13:17;;;;;;;5.08;1.17;;;;;;;26.47;51.10;100160.38;1767813;80;21367;-57
2022/07/13 11:16:54;;;;;;;2.77;0.82;;;;;;;26.51;50.95;100165.73;1678527;84;21224;-56
2022/07/13 11:20:12;;;;;;;2.05;1.12;;;;;;;26.51;50.75;100160.11;1739313;82;21205;-56
2022/07/13 11:26:59;;;;;;;6.08;1.05;;;;;;;26.51;50.29;100164.32;1748215;81;21927;-57
2022/07/13 11:30:10;;;;;;;1.82;1.10;;;;;;;26.53;50.10;100155.61;1736069;81;21225;-57
2022/07/13 11:33:19;;;;;;;2.60;1.35;;;;;;;26.50;49.89;100154.78;1767549;80;21229;-58
2022/07/13 11:36:38;;;;;;;2.80;1.10;;;;;;;26.46;49.73;100150.29;1763735;78;21220;-58
2022/07/13 11:39:46;;;;;;;4.35;1.20;;;;;;;26.40;49.48;100149.45;1754079;78;21212;-55
2022/07/13 11:43:00;;;;;;;8.68;4.53;;;;;;;26.26;49.33;100145.56;1784110;78;21157;-56
2022/07/13 11:46:09;;;;;;;4.37;1.15;;;;;;;26.15;49.27;100155.13;1774258;80;21198;-56
2022/07/13 11:49:18;;;;;;;4.42;1.10;;;;;;;26.13;49.13;100143.92;1771238;79;21248;-55
2022/07/13 11:52:33;;;;;;;5.33;1.57;;;;;;;26.15;49.03;100147.26;1786203;78;21185;-55
2022/07/13 11:55:39;;;;;;;3.83;1.35;;;;;;;26.22;48.93;100140.80;1781024;78;21305;-57
2022/07/13 11:58:49;;;;;;;2.08;1.20;;;;;;;26.25;48.78;100134.06;1735462;81;21208;-57
2022/07/13 12:02:02;;;;;;;2.08;0.90;;;;;;;26.26;48.61;100137.14;1734423;80;21228;-57
2022/07/13 12:05:12;;;;;;;4.55;1.10;;;;;;;26.24;48.47;100133.77;1717309;81;21220;-55
2022/07/13 12:08:31;;;;;;;3.60;1.10;;;;;;;26.29;48.33;100137.16;1740141;80;21221;-55
2022/07/13 12:11:39;;;;;;;3.15;1.07;;;;;;;26.26;48.15;100130.67;1784865;78;21181;-56
2022/07/13 12:14:52;;;;;;;4.00;1.20;;;;;;;26.29;48.01;100125.92;1790634;79;21206;-55
2022/07/13 12:18:01;;;;;;;4.78;1.67;;;;;;;26.25;47.87;100120.03;1794222;78;21200;-57
2022/07/13 12:21:10;;;;;;;5.40;2.40;;;;;;;26.15;47.71;100122.00;1789571;77;21201;-57
2022/07/13 12:24:22;;;;;;;3.22;1.12;;;;;;;26.04;47.61;100117.53;1754340;80;21790;-57
2022/07/13 12:27:35;;;;;;;2.45;0.98;;;;;;;25.87;47.47;100115.02;1781799;78;21198;-57
2022/07/13 12:30:47;;;;;;;2.75;1.05;;;;;;;25.68;47.37;100108.30;1739475;81;21257;-57
2022/07/13 12:33:58;;;;;;;2.05;1.05;;;;;;;25.53;47.38;100113.08;1713221;83;21695;-56
2022/07/13 12:37:08;;;;;;;3.12;0.80;;;;;;;25.44;47.37;100114.73;1770269;80;21710;-55
2022/07/13 12:40:22;;;;;;;2.47;1.00;;;;;;;25.27;47.36;100139.34;1751257;80;21279;-56
2022/07/13 12:43:35;;;;;;;4.58;1.07;;;;;;;25.12;47.35;100131.75;1746263;81;21327;-56
2022/07/13 12:46:58;;;;;;;2.27;1.02;;;;;;;24.90;47.29;100135.33;1773589;78;21204;-55
2022/07/13 12:50:10;;;;;;;6.40;1.20;;;;;;;24.65;47.25;100145.01;1768258;81;21189;-57
2022/07/13 12:53:20;;;;;;;4.45;1.00;;;;;;;24.34;47.28;100142.61;1799431;79;21209;-58
2022/07/13 12:56:35;;;;;;;4.10;1.35;;;;;;;24.01;47.34;100151.89;1769141;81;21377;-57
2022/07/13 12:59:43;;;;;;;;;;;;;;;23.67;47.46;100161.67;1790671;79;21563;-56
2022/07/13 13:02:50;;;;;;;8.65;1.47;;;;;;;23.23;47.52;100186.09;1716090;83;20332;-58
2022/07/13 13:06:03;;;;;;;3.42;1.40;;;;;;;22.82;47.70;100186.70;1770368;80;21201;-57
2022/07/13 13:09:15;;;;;;;3.37;1.02;;;;;;;22.50;47.96;100208.03;1785884;79;21174;-57
2022/07/13 13:12:23;;;;;;;6.75;1.60;;;;;;;22.14;48.12;100168.45;1793999;79;21221;-57
2022/07/13 13:15:33;;;;;;;4.30;1.00;;;;;;;21.85;48.40;100174.41;1799755;79;21214;-56
2022/07/13 13:18:40;;;;;;;10.40;3.15;;;;;;;21.63;48.69;100188.21;1801869;79;21211;-59
2022/07/13 13:21:50;;;;;;;2.58;1.00;;;;;;;21.44;48.86;100190.93;1801060;79;21346;-56
2022/07/13 13:24:57;;;;;;;1.40;1.10;;;;;;;21.24;49.01;100228.69;1774012;81;21246;-56
2022/07/13 13:28:14;;;;;;;3.47;1.05;;;;;;;20.99;49.21;100190.08;1797956;80;21370;-57
2022/07/13 13:35:22;;;;;;;3.02;0.70;;;;;;;20.75;49.68;100212.08;1795277;79;21350;-57
2022/07/13 13:38:29;;;;;;;15.83;14.03;;;;;;;20.52;49.89;100202.38;1772390;79;21821;-56
2022/07/13 13:41:37;;;;;;;4.72;1.80;;;;;;;20.34;50.07;100203.94;1802902;78;21220;-56
2022/07/13 13:44:44;;;;;;;1.62;1.02;;;;;;;20.26;50.35;100187.62;1803512;79;21165;-51
2022/07/13 13:47:53;;;;;;;2.08;1.00;;;;;;;20.18;50.53;100208.30;1801191;79;21527;-52
2022/07/13 13:50:59;;;;;;;4.50;1.30;;;;;;;20.07;50.73;100198.53;1782382;78;21217;-50
2022/07/13 13:54:05;;;;;;;3.92;2.15;;;;;;;19.99;50.89;100205.84;1759610;78;21551;-49
2022/07/13 13:57:11;;;;;;;5.55;2.83;;;;;;;19.92;51.04;100202.32;1770797;79;21208;-50
2022/07/13 14:00:18;;;;;;;2.42;1.50;;;;;;;19.88;51.20;100192.79;1771354;81;21183;-50
2022/07/13 14:03:26;;;;;;;2.52;1.30;;;;;;;19.83;51.34;100208.80;1770196;81;21675;-55
2022/07/13 14:06:35;;;;;;;1.75;1.30;;;;;;;19.74;51.48;100201.88;1768352;79;21295;-54
2022/07/13 14:09:43;;;;;;;3.27;1.30;;;;;;;19.68;51.73;100195.08;1770415;80;21237;-56
2022/07/13 14:12:51;;;;;;;1.70;1.30;;;;;;;19.61;51.78;100209.06;1802180;78;21213;-56
2022/07/13 14:15:59;;;;;;;2.60;0.90;;;;;;;19.46;51.90;100180.03;1801013;78;21224;-57
2022/07/13 14:19:04;;;;;;;1.32;1.10;;;;;;;19.36;52.10;100162.56;1751691;80;21232;-58
2022/07/13 14:25:29;;;;;;;2.08;1.25;;;;;;;19.38;52.51;100176.23;1636983;85;21212;-57
2022/07/13 14:28:35;;;;;;;2.30;1.20;;;;;;;19.38;52.66;100179.84;1631225;87;21289;-57
2022/07/13 14:31:41;;;;;;;2.40;1.30;;;;;;;19.39;52.80;100179.31;1609679;87;21274;-57
2022/07/13 14:34:49;;;;;;;1.87;1.42;;;;;;;19.39;52.94;100175.14;1638788;86;21275;-58
2022/07/13 14:37:56;;;;;;;3.58;1.67;;;;;;;19.39;53.09;100169.59;1629458;87;21332;-58
2022/07/13 14:41:04;;;;;;;3.87;2.00;;;;;;;19.37;53.22;100160.11;1629577;88;21327;-57
2022/07/13 14:44:10;;;;;;;1.35;1.25;;;;;;;19.36;53.33;100161.74;1631604;88;21251;-58
2022/07/13 14:47:16;;;;;;;2.42;1.37;;;;;;;19.33;53.49;100154.72;1631578;88;21437;-56
2022/07/13 14:50:24;;;;;;;2.45;1.50;;;;;;;19.31;53.61;100139.69;1630863;88;21268;-57
2022/07/13 14:53:32;;;;;;;2.72;1.75;;;;;;;19.29;53.71;100141.87;1630350;88;21232;-57
2022/07/13 14:56:40;;;;;;;3.20;1.75;;;;;;;19.31;53.83;100147.20;1631705;86;21806;-56
2022/07/13 14:59:47;;;;;;;3.17;2.17;;;;;;;19.27;53.84;100128.74;1631298;87;21345;-56
2022/07/13 15:02:55;;;;;;;2.22;1.30;;;;;;;19.23;53.86;100129.46;1631995;86;21232;-57
2022/07/13 15:06:02;;;;;;;2.98;1.17;;;;;;;19.21;54.14;100122.77;1633064;86;21885;-58